Time;durP1;ratioP1;P1;durP2;ratioP2;P2;SDS_P1;SDS_P2;PMS_P1;PMS_P2;Temp;Humidity;BMP_temperature;BMP_pressure;BME280_temperature;BME280_humidity;BME280_pressure;Samples;Min_cycle;Max_cycle;Signal;HPM_P1;HPM_P2
2024/04/19 00:01:30;;;;;;;;;;;;;;;;;;5515487;25;5122;-59
2024/04/19 00:03:56;;;;;;;;;;;;;;;;;;5516211;26;4787;-59
2024/04/19 00:06:21;;;;;;;;;;;;;;;;;;5514728;26;4631;-58
2024/04/19 00:08:47;;;;;;;;;;;;;;;;;;5515817;25;1358;-59
2024/04/19 00:11:12;;;;;;;;;;;;;;;;;;5505587;25;5107;-59
2024/04/19 00:13:37;;;;;;;;;;;;;;;;;;5519674;26;5184;-59
2024/04/19 00:16:03;;;;;;;;;;;;;;;;;;5516212;25;5075;-59
2024/04/19 00:18:28;;;;;;;;;;;;;;;;;;5517853;25;5051;-59
2024/04/19 00:20:57;;;;;;;;;;;;;;;;;;5513425;25;5124;-59
2024/04/19 00:23:22;;;;;;;;;;;;;;;;;;5475803;25;1331;-59
2024/04/19 00:25:48;;;;;;;;;;;;;;;;;;5468987;26;5074;-59
2024/04/19 00:28:13;;;;;;;;;;;;;;;;;;5472215;26;5228;-59
2024/04/19 00:30:40;;;;;;;;;;;;;;;;;;5463724;26;5034;-59
2024/04/19 00:33:05;;;;;;;;;;;;;;;;;;5427388;26;5299;-58
2024/04/19 00:35:30;;;;;;;;;;;;;;;;;;5437578;26;1697;-59
2024/04/19 00:37:56;;;;;;;;;;;;;;;;;;5465476;26;4491;-59
2024/04/19 00:40:21;;;;;;;;;;;;;;;;;;5460750;26;5233;-59
2024/04/19 00:42:49;;;;;;;;;;;;;;;;;;5467825;26;5209;-58
2024/04/19 00:45:24;;;;;;;;;;;;;;;;;;5470029;26;5192;-59
2024/04/19 00:47:49;;;;;;;;;;;;;;;;;;5467478;26;5207;-58
2024/04/19 00:50:15;;;;;;;;;;;;;;;;;;5460968;26;3605;-59
2024/04/19 00:52:40;;;;;;;;;;;;;;;;;;5438655;26;4798;-59
2024/04/19 00:55:05;;;;;;;;;;;;;;;;;;5429679;26;5249;-59
2024/04/19 00:57:31;;;;;;;;;;;;;;;;;;5475223;26;4566;-58
2024/04/19 00:59:56;;;;;;;;;;;;;;;;;;5464910;26;5168;-58
2024/04/19 01:02:22;;;;;;;;;;;;;;;;;;5475142;26;3574;-59
2024/04/19 01:04:47;;;;;;;;;;;;;;;;;;5469276;26;5186;-58
2024/04/19 01:07:12;;;;;;;;;;;;;;;;;;5466563;26;5337;-59
2024/04/19 01:09:38;;;;;;;;;;;;;;;;;;5462970;26;4572;-58
2024/04/19 01:12:04;;;;;;;;;;;;;;;;;;5463205;26;4712;-59
2024/04/19 01:14:29;;;;;;;;;;;;;;;;;;5466504;26;1364;-58
2024/04/19 01:16:54;;;;;;;;;;;;;;;;;;5461278;26;5098;-59
2024/04/19 01:19:20;;;;;;;;;;;;;;;;;;5465766;26;5114;-58
2024/04/19 01:21:45;;;;;;;;;;;;;;;;;;5471739;25;5106;-59
2024/04/19 01:24:16;;;;;;;;;;;;;;;;;;5499351;25;5127;-58
2024/04/19 01:26:42;;;;;;;;;;;;;;;;;;5516305;25;1921;-58
2024/04/19 01:29:07;;;;;;;;;;;;;;;;;;5515571;26;5232;-59
2024/04/19 01:31:32;;;;;;;;;;;;;;;;;;5480626;26;5137;-59
2024/04/19 01:33:58;;;;;;;;;;;;;;;;;;5494974;26;5096;-59
2024/04/19 01:36:23;;;;;;;;;;;;;;;;;;5514347;25;4583;-58
2024/04/19 01:38:48;;;;;;;;;;;;;;;;;;5509205;25;3390;-59
2024/04/19 01:41:14;;;;;;;;;;;;;;;;;;5516139;25;4916;-59
2024/04/19 01:43:39;;;;;;;;;;;;;;;;;;5508843;26;4649;-59
2024/04/19 01:46:04;;;;;;;;;;;;;;;;;;5503074;26;4470;-59
2024/04/19 01:48:30;;;;;;;;;;;;;;;;;;5512807;25;5106;-59
2024/04/19 01:50:55;;;;;;;;;;;;;;;;;;5512585;26;5189;-59
2024/04/19 01:53:21;;;;;;;;;;;;;;;;;;5508651;25;2443;-59
2024/04/19 01:55:47;;;;;;;;;;;;;;;;;;5510750;26;5142;-59
2024/04/19 01:58:12;;;;;;;;;;;;;;;;;;5499222;25;5196;-59
2024/04/19 02:00:37;;;;;;;;;;;;;;;;;;5510196;25;6074;-58
2024/04/19 02:03:03;;;;;;;;;;;;;;;;;;5501543;25;5157;-59
2024/04/19 02:05:28;;;;;;;;;;;;;;;;;;5514146;25;3301;-59
2024/04/19 02:07:53;;;;;;;;;;;;;;;;;;5513255;25;5182;-59
2024/04/19 02:10:19;;;;;;;;;;;;;;;;;;5515752;25;5011;-59
2024/04/19 02:12:44;;;;;;;;;;;;;;;;;;5500566;26;5116;-59
2024/04/19 02:15:09;;;;;;;;;;;;;;;;;;5505107;26;4574;-59
2024/04/19 02:17:35;;;;;;;;;;;;;;;;;;5499494;26;1167;-58
2024/04/19 02:20:00;;;;;;;;;;;;;;;;;;5505412;26;4712;-59
2024/04/19 02:22:26;;;;;;;;;;;;;;;;;;5502768;26;5011;-59
2024/04/19 02:24:51;;;;;;;;;;;;;;;;;;5507174;25;5165;-59
2024/04/19 02:32:44;;;;;;;;;;;;;;;;;;5496209;25;3060;-58
2024/04/19 02:35:09;;;;;;;;;;;;;;;;;;5503016;26;5272;-58
2024/04/19 02:37:34;;;;;;;;;;;;;;;;;;5507256;26;5018;-59
2024/04/19 02:40:00;;;;;;;;;;;;;;;;;;5512327;26;5124;-59
2024/04/19 02:42:25;;;;;;;;;;;;;;;;;;5516460;25;5163;-58
2024/04/19 02:44:50;;;;;;;;;;;;;;;;;;5506942;25;4549;-58
2024/04/19 02:47:16;;;;;;;;;;;;;;;;;;5503015;26;3418;-59
2024/04/19 02:49:41;;;;;;;;;;;;;;;;;;5503755;25;5194;-59
2024/04/19 02:52:06;;;;;;;;;;;;;;;;;;5510396;26;5371;-58
2024/04/19 02:54:32;;;;;;;;;;;;;;;;;;5503043;25;5040;-58
2024/04/19 02:56:57;;;;;;;;;;;;;;;;;;5510829;26;5249;-58
2024/04/19 02:59:22;;;;;;;;;;;;;;;;;;5502842;26;3471;-59
2024/04/19 03:01:48;;;;;;;;;;;;;;;;;;5519260;25;5365;-58
2024/04/19 03:04:13;;;;;;;;;;;;;;;;;;5482371;26;5205;-59
2024/04/19 03:06:39;;;;;;;;;;;;;;;;;;5512062;25;5225;-59
2024/04/19 03:09:04;;;;;;;;;;;;;;;;;;5514065;25;5181;-59
2024/04/19 03:11:29;;;;;;;;;;;;;;;;;;5513770;25;3602;-59
2024/04/19 03:13:55;;;;;;;;;;;;;;;;;;5469742;26;4716;-59
2024/04/19 03:16:20;;;;;;;;;;;;;;;;;;5511767;25;4680;-59
2024/04/19 03:18:45;;;;;;;;;;;;;;;;;;5505932;25;5157;-59
2024/04/19 03:21:11;;;;;;;;;;;;;;;;;;5509194;25;5102;-59
2024/04/19 03:23:36;;;;;;;;;;;;;;;;;;5509869;25;3303;-59
2024/04/19 03:26:02;;;;;;;;;;;;;;;;;;5515126;25;5010;-59
2024/04/19 03:28:27;;;;;;;;;;;;;;;;;;5503827;25;5292;-59
2024/04/19 03:30:52;;;;;;;;;;;;;;;;;;5512165;25;4493;-59
2024/04/19 03:33:18;;;;;;;;;;;;;;;;;;5509128;26;5333;-59
2024/04/19 03:35:43;;;;;;;;;;;;;;;;;;5503476;26;3145;-59
2024/04/19 03:38:09;;;;;;;;;;;;;;;;;;5485860;25;5355;-59
2024/04/19 03:40:34;;;;;;;;;;;;;;;;;;5499860;25;5068;-58
2024/04/19 03:43:00;;;;;;;;;;;;;;;;;;5498366;26;5094;-59
2024/04/19 03:45:40;;;;;;;;;;;;;;;;;;5516268;26;5366;-59
2024/04/19 03:48:06;;;;;;;;;;;;;;;;;;5499375;26;5260;-58
2024/04/19 03:50:31;;;;;;;;;;;;;;;;;;5523800;25;3582;-59
2024/04/19 03:52:56;;;;;;;;;;;;;;;;;;5488140;25;4634;-59
2024/04/19 03:55:22;;;;;;;;;;;;;;;;;;5512157;26;5294;-59
2024/04/19 03:57:47;;;;;;;;;;;;;;;;;;5492779;25;5260;-59
2024/04/19 04:00:13;;;;;;;;;;;;;;;;;;5511652;25;4705;-59
2024/04/19 04:02:38;;;;;;;;;;;;;;;;;;5494989;25;3561;-59
2024/04/19 04:05:04;;;;;;;;;;;;;;;;;;5485930;26;5331;-59
2024/04/19 04:07:29;;;;;;;;;;;;;;;;;;5504557;26;4704;-59
2024/04/19 04:09:55;;;;;;;;;;;;;;;;;;5509505;25;5220;-59
2024/04/19 04:12:20;;;;;;;;;;;;;;;;;;5495152;25;4728;-60
2024/04/19 04:14:45;;;;;;;;;;;;;;;;;;5499224;25;3457;-59
2024/04/19 04:17:11;;;;;;;;;;;;;;;;;;5509407;25;5131;-59
2024/04/19 04:19:36;;;;;;;;;;;;;;;;;;5514479;25;5200;-59
2024/04/19 04:22:02;;;;;;;;;;;;;;;;;;5507370;25;5081;-59
2024/04/19 04:24:27;;;;;;;;;;;;;;;;;;5521887;25;5177;-59
2024/04/19 04:26:52;;;;;;;;;;;;;;;;;;5512120;26;5365;-59
2024/04/19 04:29:18;;;;;;;;;;;;;;;;;;5515514;26;1393;-59
2024/04/19 04:31:43;;;;;;;;;;;;;;;;;;5500157;26;5684;-60
2024/04/19 04:34:09;;;;;;;;;;;;;;;;;;5514035;25;4534;-59
2024/04/19 04:36:34;;;;;;;;;;;;;;;;;;5508728;26;5164;-59
2024/04/19 04:38:59;;;;;;;;;;;;;;;;;;5499243;26;5153;-60
2024/04/19 04:41:25;;;;;;;;;;;;;;;;;;5515310;26;1324;-59
2024/04/19 04:43:50;;;;;;;;;;;;;;;;;;5509220;26;5065;-58
2024/04/19 04:46:16;;;;;;;;;;;;;;;;;;5530210;25;4650;-58
2024/04/19 04:48:41;;;;;;;;;;;;;;;;;;5517377;26;5027;-59
2024/04/19 04:51:06;;;;;;;;;;;;;;;;;;5456145;26;4599;-59
2024/04/19 04:53:32;;;;;;;;;;;;;;;;;;5512252;26;1432;-58
2024/04/19 04:55:57;;;;;;;;;;;;;;;;;;5519114;25;5085;-58
2024/04/19 04:58:22;;;;;;;;;;;;;;;;;;5495911;26;5057;-57
2024/04/19 05:00:48;;;;;;;;;;;;;;;;;;5486732;25;5251;-58
2024/04/19 05:03:13;;;;;;;;;;;;;;;;;;5505033;25;5134;-57
2024/04/19 05:05:39;;;;;;;;;;;;;;;;;;5519971;25;3426;-57
2024/04/19 05:08:04;;;;;;;;;;;;;;;;;;5515629;25;5130;-57
2024/04/19 05:10:30;;;;;;;;;;;;;;;;;;5502770;25;5196;-57
2024/04/19 05:12:56;;;;;;;;;;;;;;;;;;5506832;25;5219;-57
2024/04/19 05:15:22;;;;;;;;;;;;;;;;;;5517563;25;5647;-57
2024/04/19 05:17:47;;;;;;;;;;;;;;;;;;5506314;25;3309;-57
2024/04/19 05:20:12;;;;;;;;;;;;;;;;;;5508863;26;4732;-58
2024/04/19 05:22:38;;;;;;;;;;;;;;;;;;5511292;25;5045;-58
2024/04/19 05:25:04;;;;;;;;;;;;;;;;;;5513886;25;5116;-58
2024/04/19 05:27:29;;;;;;;;;;;;;;;;;;5512204;26;5299;-58
2024/04/19 05:29:55;;;;;;;;;;;;;;;;;;5514326;26;5218;-59
2024/04/19 05:32:22;;;;;;;;;;;;;;;;;;5514053;25;3456;-59
2024/04/19 05:34:47;;;;;;;;;;;;;;;;;;5480102;26;5022;-59
2024/04/19 05:37:12;;;;;;;;;;;;;;;;;;5500306;26;5209;-58
2024/04/19 05:39:38;;;;;;;;;;;;;;;;;;5516532;26;5071;-59
2024/04/19 05:42:03;;;;;;;;;;;;;;;;;;5499917;25;5753;-58
2024/04/19 05:44:31;;;;;;;;;;;;;;;;;;5517304;25;3382;-58
2024/04/19 05:46:57;;;;;;;;;;;;;;;;;;5509060;25;5205;-58
2024/04/19 05:49:22;;;;;;;;;;;;;;;;;;5506671;26;5221;-58
2024/04/19 05:51:48;;;;;;;;;;;;;;;;;;5502145;26;5244;-59
2024/04/19 05:54:13;;;;;;;;;;;;;;;;;;5506329;26;5815;-58
2024/04/19 05:56:38;;;;;;;;;;;;;;;;;;5518741;25;3179;-58
2024/04/19 05:59:04;;;;;;;;;;;;;;;;;;5508555;26;5013;-58
2024/04/19 06:01:29;;;;;;;;;;;;;;;;;;5499434;26;5277;-59
2024/04/19 06:03:54;;;;;;;;;;;;;;;;;;5504207;26;5229;-58
2024/04/19 06:06:22;;;;;;;;;;;;;;;;;;5510567;26;5687;-58
2024/04/19 06:08:48;;;;;;;;;;;;;;;;;;5519209;26;1286;-58
2024/04/19 06:11:13;;;;;;;;;;;;;;;;;;5517986;26;5089;-58
2024/04/19 06:13:39;;;;;;;;;;;;;;;;;;5518862;26;4657;-58
2024/04/19 06:16:04;;;;;;;;;;;;;;;;;;5501226;26;5216;-58
2024/04/19 06:18:30;;;;;;;;;;;;;;;;;;5479975;26;5431;-58
2024/04/19 06:20:55;;;;;;;;;;;;;;;;;;5512236;26;5337;-58
2024/04/19 06:23:20;;;;;;;;;;;;;;;;;;5501975;25;3528;-58
2024/04/19 06:25:46;;;;;;;;;;;;;;;;;;5517990;25;5170;-59
2024/04/19 06:28:11;;;;;;;;;;;;;;;;;;5467108;26;4703;-58
2024/04/19 06:30:36;;;;;;;;;;;;;;;;;;5506046;26;5371;-59
2024/04/19 06:33:02;;;;;;;;;;;;;;;;;;5504996;26;5087;-58
2024/04/19 06:35:27;;;;;;;;;;;;;;;;;;5503198;26;1336;-58
2024/04/19 06:37:52;;;;;;;;;;;;;;;;;;5499180;26;4530;-59
2024/04/19 06:40:18;;;;;;;;;;;;;;;;;;5508813;26;5104;-58
2024/04/19 06:42:43;;;;;;;;;;;;;;;;;;5499960;26;5140;-59
2024/04/19 06:45:08;;;;;;;;;;;;;;;;;;5518150;26;5449;-58
2024/04/19 06:47:34;;;;;;;;;;;;;;;;;;5505531;26;2356;-58
2024/04/19 06:49:59;;;;;;;;;;;;;;;;;;5515753;26;4677;-58
2024/04/19 06:52:25;;;;;;;;;;;;;;;;;;5513196;26;4554;-59
2024/04/19 06:54:50;;;;;;;;;;;;;;;;;;5463793;26;5121;-59
2024/04/19 06:57:17;;;;;;;;;;;;;;;;;;5513137;26;5036;-59
2024/04/19 06:59:42;;;;;;;;;;;;;;;;;;5474486;26;3384;-59
2024/04/19 07:02:08;;;;;;;;;;;;;;;;;;5481091;26;4510;-58
2024/04/19 07:04:33;;;;;;;;;;;;;;;;;;5506085;26;5188;-58
2024/04/19 07:06:58;;;;;;;;;;;;;;;;;;5498573;26;5120;-59
2024/04/19 07:09:24;;;;;;;;;;;;;;;;;;5510529;26;4664;-58
2024/04/19 07:11:49;;;;;;;;;;;;;;;;;;5514319;26;3498;-59
2024/04/19 07:14:14;;;;;;;;;;;;;;;;;;5505656;26;4953;-58
2024/04/19 07:16:40;;;;;;;;;;;;;;;;;;5507658;26;4558;-58
2024/04/19 07:19:05;;;;;;;;;;;;;;;;;;5510842;26;5191;-59
2024/04/19 07:21:30;;;;;;;;;;;;;;;;;;5508194;26;5122;-59
2024/04/19 07:23:56;;;;;;;;;;;;;;;;;;5506176;26;5219;-59
2024/04/19 07:26:21;;;;;;;;;;;;;;;;;;5503310;25;1861;-59
2024/04/19 07:28:46;;;;;;;;;;;;;;;;;;5512772;26;5002;-58
2024/04/19 07:31:13;;;;;;;;;;;;;;;;;;5512590;25;5297;-59
2024/04/19 07:33:39;;;;;;;;;;;;;;;;;;5505618;26;5334;-58
2024/04/19 07:36:04;;;;;;;;;;;;;;;;;;5515378;26;4546;-58
2024/04/19 07:38:29;;;;;;;;;;;;;;;;;;5505096;26;3407;-58
2024/04/19 07:40:55;;;;;;;;;;;;;;;;;;5507705;26;5053;-58
2024/04/19 07:43:20;;;;;;;;;;;;;;;;;;5474754;26;5126;-58
2024/04/19 07:45:46;;;;;;;;;;;;;;;;;;5511685;26;4660;-59
2024/04/19 07:48:11;;;;;;;;;;;;;;;;;;5507781;25;5070;-58
2024/04/19 07:50:36;;;;;;;;;;;;;;;;;;5511300;26;2458;-58
2024/04/19 07:53:02;;;;;;;;;;;;;;;;;;5507184;26;5083;-59
2024/04/19 07:55:27;;;;;;;;;;;;;;;;;;5509926;26;4995;-59
2024/04/19 07:57:53;;;;;;;;;;;;;;;;;;5495919;26;5104;-58
2024/04/19 08:00:21;;;;;;;;;;;;;;;;;;5517644;26;5073;-58
2024/04/19 08:02:46;;;;;;;;;;;;;;;;;;5520894;26;1369;-57
2024/04/19 08:05:12;;;;;;;;;;;;;;;;;;5503692;26;5212;-58
2024/04/19 08:07:37;;;;;;;;;;;;;;;;;;5513966;26;5162;-59
2024/04/19 08:10:03;;;;;;;;;;;;;;;;;;5518356;26;5269;-58
2024/04/19 08:12:28;;;;;;;;;;;;;;;;;;5510489;26;5045;-59
2024/04/19 08:14:53;;;;;;;;;;;;;;;;;;5516840;26;5309;-58
2024/04/19 08:17:19;;;;;;;;;;;;;;;;;;5520381;26;1382;-58
2024/04/19 08:19:44;;;;;;;;;;;;;;;;;;5519837;26;5119;-59
2024/04/19 08:22:10;;;;;;;;;;;;;;;;;;5474403;26;5111;-59
2024/04/19 08:24:36;;;;;;;;;;;;;;;;;;5512099;25;4493;-58
2024/04/19 08:27:01;;;;;;;;;;;;;;;;;;5503047;26;5197;-58
2024/04/19 08:29:27;;;;;;;;;;;;;;;;;;5511749;26;1412;-58
2024/04/19 08:31:52;;;;;;;;;;;;;;;;;;5514552;26;4639;-58
2024/04/19 08:34:17;;;;;;;;;;;;;;;;;;5511370;26;5206;-58
2024/04/19 08:36:43;;;;;;;;;;;;;;;;;;5501972;26;5142;-58
2024/04/19 08:39:08;;;;;;;;;;;;;;;;;;5510358;26;5073;-58
2024/04/19 08:41:34;;;;;;;;;;;;;;;;;;5516673;26;1280;-59
2024/04/19 08:43:59;;;;;;;;;;;;;;;;;;5516815;26;5202;-59
2024/04/19 08:46:28;;;;;;;;;;;;;;;;;;5507785;26;4504;-58
2024/04/19 08:48:53;;;;;;;;;;;;;;;;;;5510553;26;5094;-58
2024/04/19 08:51:19;;;;;;;;;;;;;;;;;;5516077;26;5330;-58
2024/04/19 08:53:44;;;;;;;;;;;;;;;;;;5493104;26;1348;-58
2024/04/19 08:56:10;;;;;;;;;;;;;;;;;;5478898;26;5102;-58
2024/04/19 08:58:35;;;;;;;;;;;;;;;;;;5503940;26;5067;-58
2024/04/19 09:01:00;;;;;;;;;;;;;;;;;;5465447;26;4509;-58
2024/04/19 09:03:26;;;;;;;;;;;;;;;;;;5516670;26;5794;-59
2024/04/19 09:05:51;;;;;;;;;;;;;;;;;;5468167;26;4627;-58
2024/04/19 09:08:17;;;;;;;;;;;;;;;;;;5514299;26;1372;-58
2024/04/19 09:10:42;;;;;;;;;;;;;;;;;;5445997;26;4526;-59
2024/04/19 09:13:07;;;;;;;;;;;;;;;;;;5515013;26;5098;-58
2024/04/19 09:15:33;;;;;;;;;;;;;;;;;;5519436;26;5206;-58
2024/04/19 09:17:59;;;;;;;;;;;;;;;;;;5508589;26;5853;-59
2024/04/19 09:20:24;;;;;;;;;;;;;;;;;;5517521;26;3412;-59
2024/04/19 09:22:50;;;;;;;;;;;;;;;;;;5507106;26;5327;-59
2024/04/19 09:25:16;;;;;;;;;;;;;;;;;;5511736;26;5274;-59
2024/04/19 09:27:42;;;;;;;;;;;;;;;;;;5483614;26;4838;-58
2024/04/19 09:30:09;;;;;;;;;;;;;;;;;;5465144;26;5367;-59
2024/04/19 09:32:34;;;;;;;;;;;;;;;;;;5512723;26;1366;-59
2024/04/19 09:35:01;;;;;;;;;;;;;;;;;;5497889;26;4441;-58
2024/04/19 09:37:28;;;;;;;;;;;;;;;;;;5515942;26;4532;-59
2024/04/19 09:39:53;;;;;;;;;;;;;;;;;;5454818;26;5328;-58
2024/04/19 09:42:19;;;;;;;;;;;;;;;;;;5463255;26;5194;-59
2024/04/19 09:44:45;;;;;;;;;;;;;;;;;;5517528;26;1257;-59
2024/04/19 09:47:10;;;;;;;;;;;;;;;;;;5464075;26;5058;-58
2024/04/19 09:49:35;;;;;;;;;;;;;;;;;;5513479;26;4527;-59
2024/04/19 09:52:01;;;;;;;;;;;;;;;;;;5477015;26;4597;-59
2024/04/19 09:54:27;;;;;;;;;;;;;;;;;;5459008;26;4673;-59
2024/04/19 09:56:56;;;;;;;;;;;;;;;;;;5462927;26;5164;-58
2024/04/19 09:59:22;;;;;;;;;;;;;;;;;;5473606;26;1322;-59
2024/04/19 10:01:47;;;;;;;;;;;;;;;;;;5507696;26;4630;-58
2024/04/19 10:04:13;;;;;;;;;;;;;;;;;;5492540;26;5696;-58
2024/04/19 10:06:38;;;;;;;;;;;;;;;;;;5483708;26;5438;-59
2024/04/19 10:09:13;;;;;;;;;;;;;;;;;;5502503;26;5338;-59
2024/04/19 10:11:38;;;;;;;;;;;;;;;;;;5517110;26;2408;-58
2024/04/19 10:14:04;;;;;;;;;;;;;;;;;;5518194;26;4447;-58
2024/04/19 10:16:29;;;;;;;;;;;;;;;;;;5518217;26;4573;-58
2024/04/19 10:18:55;;;;;;;;;;;;;;;;;;5506419;26;5121;-59
2024/04/19 10:21:29;;;;;;;;;;;;;;;;;;5510864;26;5041;-58
2024/04/19 10:23:55;;;;;;;;;;;;;;;;;;5506447;26;5279;-59
2024/04/19 10:26:23;;;;;;;;;;;;;;;;;;5508740;26;1849;-59
2024/04/19 10:28:54;;;;;;;;;;;;;;;;;;5503680;26;5119;-58
2024/04/19 10:31:20;;;;;;;;;;;;;;;;;;5471926;26;5229;-59
2024/04/19 10:33:46;;;;;;;;;;;;;;;;;;5517775;26;4665;-58
2024/04/19 10:36:11;;;;;;;;;;;;;;;;;;5478887;26;5096;-59
2024/04/19 10:38:37;;;;;;;;;;;;;;;;;;5506838;26;3353;-57
2024/04/19 10:41:04;;;;;;;;;;;;;;;;;;5461324;26;5132;-59
2024/04/19 10:43:30;;;;;;;;;;;;;;;;;;5495974;26;4597;-58
2024/04/19 10:45:55;;;;;;;;;;;;;;;;;;5506829;26;4824;-59
2024/04/19 10:48:21;;;;;;;;;;;;;;;;;;5506933;26;5169;-59
2024/04/19 10:50:46;;;;;;;;;;;;;;;;;;5509081;26;2579;-58
2024/04/19 10:53:11;;;;;;;;;;;;;;;;;;5468970;26;5182;-58
2024/04/19 10:55:38;;;;;;;;;;;;;;;;;;5499311;26;5249;-58
2024/04/19 10:58:03;;;;;;;;;;;;;;;;;;5462365;26;5289;-59
2024/04/19 11:00:28;;;;;;;;;;;;;;;;;;5503107;26;4799;-58
2024/04/19 11:02:55;;;;;;;;;;;;;;;;;;5469001;26;5039;-58
2024/04/19 11:05:20;;;;;;;;;;;;;;;;;;5512635;26;3491;-59
2024/04/19 11:07:46;;;;;;;;;;;;;;;;;;5515266;26;5358;-59
2024/04/19 11:10:11;;;;;;;;;;;;;;;;;;5509761;26;5143;-58
2024/04/19 11:12:36;;;;;;;;;;;;;;;;;;5507089;26;4555;-58
2024/04/19 11:15:02;;;;;;;;;;;;;;;;;;5507869;26;5143;-58
2024/04/19 11:17:27;;;;;;;;;;;;;;;;;;5457736;26;1267;-58
2024/04/19 11:19:53;;;;;;;;;;;;;;;;;;5507715;26;5151;-59
2024/04/19 11:22:18;;;;;;;;;;;;;;;;;;5464826;26;5411;-59
2024/04/19 11:24:43;;;;;;;;;;;;;;;;;;5477778;26;5216;-58
2024/04/19 11:27:09;;;;;;;;;;;;;;;;;;5467242;26;5375;-58
2024/04/19 11:29:34;;;;;;;;;;;;;;;;;;5516983;26;1367;-59
2024/04/19 11:32:06;;;;;;;;;;;;;;;;;;5517894;26;4696;-58
2024/04/19 11:34:31;;;;;;;;;;;;;;;;;;5471940;26;5096;-59
2024/04/19 11:36:57;;;;;;;;;;;;;;;;;;5511403;26;4557;-58
2024/04/19 11:39:23;;;;;;;;;;;;;;;;;;5503947;26;4514;-58
2024/04/19 11:41:48;;;;;;;;;;;;;;;;;;5501156;26;1375;-59
2024/04/19 11:44:14;;;;;;;;;;;;;;;;;;5508654;26;4599;-59
2024/04/19 11:46:45;;;;;;;;;;;;;;;;;;5479106;26;4741;-58
2024/04/19 11:49:12;;;;;;;;;;;;;;;;;;5460553;26;5193;-59
2024/04/19 11:51:37;;;;;;;;;;;;;;;;;;5511558;26;5125;-58
2024/04/19 11:54:03;;;;;;;;;;;;;;;;;;5510814;26;5154;-59
2024/04/19 11:56:28;;;;;;;;;;;;;;;;;;5508887;26;1512;-59
2024/04/19 11:58:53;;;;;;;;;;;;;;;;;;5520669;26;5057;-58
2024/04/19 12:01:19;;;;;;;;;;;;;;;;;;5517711;26;5097;-59
2024/04/19 12:03:44;;;;;;;;;;;;;;;;;;5520448;26;5161;-59
2024/04/19 12:06:10;;;;;;;;;;;;;;;;;;5506164;26;4606;-58
2024/04/19 12:08:35;;;;;;;;;;;;;;;;;;5521283;26;1259;-58
2024/04/19 12:11:00;;;;;;;;;;;;;;;;;;5476976;26;5107;-58
2024/04/19 12:13:26;;;;;;;;;;;;;;;;;;5490988;26;5184;-58
2024/04/19 12:15:51;;;;;;;;;;;;;;;;;;5519927;26;5091;-58
2024/04/19 12:18:16;;;;;;;;;;;;;;;;;;5516404;26;4664;-58
2024/04/19 12:20:42;;;;;;;;;;;;;;;;;;5513683;26;3494;-59
2024/04/19 12:23:07;;;;;;;;;;;;;;;;;;5499398;26;5004;-59
2024/04/19 12:25:33;;;;;;;;;;;;;;;;;;5505279;26;5069;-58
2024/04/19 12:27:59;;;;;;;;;;;;;;;;;;5507958;26;4570;-59
2024/04/19 12:30:25;;;;;;;;;;;;;;;;;;5513525;26;5113;-58
2024/04/19 12:32:50;;;;;;;;;;;;;;;;;;5505862;26;4534;-57
2024/04/19 12:35:16;;;;;;;;;;;;;;;;;;5473067;26;3211;-58
2024/04/19 12:37:41;;;;;;;;;;;;;;;;;;5513879;26;5248;-58
2024/04/19 12:40:07;;;;;;;;;;;;;;;;;;5517745;26;5205;-58
2024/04/19 12:42:32;;;;;;;;;;;;;;;;;;5507927;26;4513;-58
2024/04/19 12:44:57;;;;;;;;;;;;;;;;;;5486934;26;5085;-58
2024/04/19 12:47:23;;;;;;;;;;;;;;;;;;5518261;26;3495;-58
2024/04/19 12:49:48;;;;;;;;;;;;;;;;;;5508522;26;5192;-59
2024/04/19 12:52:13;;;;;;;;;;;;;;;;;;5513564;26;5124;-58
2024/04/19 12:54:39;;;;;;;;;;;;;;;;;;5504961;26;5150;-58
2024/04/19 12:57:04;;;;;;;;;;;;;;;;;;5511305;26;5107;-58
2024/04/19 12:59:29;;;;;;;;;;;;;;;;;;5502127;26;1388;-59
2024/04/19 13:01:55;;;;;;;;;;;;;;;;;;5490462;26;5280;-58
2024/04/19 13:04:20;;;;;;;;;;;;;;;;;;5507711;26;5067;-59
2024/04/19 13:06:46;;;;;;;;;;;;;;;;;;5513909;26;5180;-59
2024/04/19 13:09:11;;;;;;;;;;;;;;;;;;5516772;26;5168;-59
2024/04/19 13:11:36;;;;;;;;;;;;;;;;;;5467582;26;3383;-58
2024/04/19 13:14:02;;;;;;;;;;;;;;;;;;5519062;26;4583;-58
2024/04/19 13:16:29;;;;;;;;;;;;;;;;;;5514067;26;4634;-59
2024/04/19 13:18:54;;;;;;;;;;;;;;;;;;5513634;26;4586;-58
2024/04/19 13:21:22;;;;;;;;;;;;;;;;;;5514557;26;5260;-58
2024/04/19 13:23:47;;;;;;;;;;;;;;;;;;5511576;25;1402;-58
2024/04/19 13:26:12;;;;;;;;;;;;;;;;;;5497049;26;5218;-59
2024/04/19 13:28:39;;;;;;;;;;;;;;;;;;5500288;26;5108;-58
2024/04/19 13:31:04;;;;;;;;;;;;;;;;;;5510065;26;5159;-59
2024/04/19 13:33:30;;;;;;;;;;;;;;;;;;5503414;26;5078;-58
2024/04/19 13:35:55;;;;;;;;;;;;;;;;;;5503464;26;5226;-59
2024/04/19 13:38:21;;;;;;;;;;;;;;;;;;5460650;26;3378;-59
2024/04/19 13:40:46;;;;;;;;;;;;;;;;;;5505690;26;5072;-59
2024/04/19 13:43:11;;;;;;;;;;;;;;;;;;5507328;26;5328;-58
2024/04/19 13:45:38;;;;;;;;;;;;;;;;;;5503854;26;5090;-59
2024/04/19 13:48:03;;;;;;;;;;;;;;;;;;5483161;26;5267;-59
2024/04/19 13:50:28;;;;;;;;;;;;;;;;;;5518677;26;1408;-59
2024/04/19 13:52:54;;;;;;;;;;;;;;;;;;5514675;26;5512;-59
2024/04/19 13:55:19;;;;;;;;;;;;;;;;;;5510081;26;5232;-58
2024/04/19 13:57:45;;;;;;;;;;;;;;;;;;5470545;26;4686;-59
2024/04/19 14:00:14;;;;;;;;;;;;;;;;;;5467560;26;5077;-58
2024/04/19 14:02:39;;;;;;;;;;;;;;;;;;5512749;26;1270;-59
2024/04/19 14:05:05;;;;;;;;;;;;;;;;;;5460819;26;5299;-59
2024/04/19 14:07:30;;;;;;;;;;;;;;;;;;5488567;26;5107;-58
2024/04/19 14:09:55;;;;;;;;;;;;;;;;;;5465569;26;5035;-58
2024/04/19 14:12:22;;;;;;;;;;;;;;;;;;5513194;26;4691;-59
2024/04/19 14:14:47;;;;;;;;;;;;;;;;;;5507556;26;3406;-59
2024/04/19 14:17:12;;;;;;;;;;;;;;;;;;5509933;26;5197;-59
2024/04/19 14:19:38;;;;;;;;;;;;;;;;;;5511195;26;5335;-58
2024/04/19 14:22:03;;;;;;;;;;;;;;;;;;5516156;25;5163;-58
2024/04/19 14:24:28;;;;;;;;;;;;;;;;;;5516183;26;5166;-58
2024/04/19 14:26:54;;;;;;;;;;;;;;;;;;5500857;26;4609;-59
2024/04/19 14:29:19;;;;;;;;;;;;;;;;;;5512616;26;3482;-59
2024/04/19 14:31:45;;;;;;;;;;;;;;;;;;5494997;26;5179;-59
2024/04/19 14:34:10;;;;;;;;;;;;;;;;;;5495869;26;4654;-58
2024/04/19 14:36:35;;;;;;;;;;;;;;;;;;5517888;26;5190;-59
2024/04/19 14:39:01;;;;;;;;;;;;;;;;;;5502038;26;5346;-58
2024/04/19 14:41:30;;;;;;;;;;;;;;;;;;5460390;26;1663;-57
2024/04/19 14:43:55;;;;;;;;;;;;;;;;;;5514381;26;4864;-59
2024/04/19 14:46:22;;;;;;;;;;;;;;;;;;5511733;26;5114;-59
2024/04/19 14:48:47;;;;;;;;;;;;;;;;;;5498906;26;5236;-59
2024/04/19 14:51:17;;;;;;;;;;;;;;;;;;5505822;26;4464;-59
2024/04/19 14:53:42;;;;;;;;;;;;;;;;;;5508356;26;2800;-59
2024/04/19 14:56:08;;;;;;;;;;;;;;;;;;5511144;26;5110;-62
2024/04/19 14:58:33;;;;;;;;;;;;;;;;;;5511845;26;5093;-59
2024/04/19 15:00:59;;;;;;;;;;;;;;;;;;5507198;26;4651;-59
2024/04/19 15:03:24;;;;;;;;;;;;;;;;;;5503949;26;4649;-59
2024/04/19 15:05:51;;;;;;;;;;;;;;;;;;5508710;26;3485;-59
2024/04/19 15:08:16;;;;;;;;;;;;;;;;;;5507308;26;5126;-59
2024/04/19 15:10:41;;;;;;;;;;;;;;;;;;5513294;26;5044;-58
2024/04/19 15:13:07;;;;;;;;;;;;;;;;;;5516783;26;5200;-59
2024/04/19 15:15:32;;;;;;;;;;;;;;;;;;5508027;26;5157;-59
2024/04/19 15:17:58;;;;;;;;;;;;;;;;;;5517770;26;5244;-59
2024/04/19 15:20:24;;;;;;;;;;;;;;;;;;5484226;26;1311;-58
2024/04/19 15:22:50;;;;;;;;;;;;;;;;;;5508823;25;5043;-59
2024/04/19 15:25:15;;;;;;;;;;;;;;;;;;5465775;26;5249;-58
2024/04/19 15:27:41;;;;;;;;;;;;;;;;;;5491195;26;4720;-58
2024/04/19 15:30:07;;;;;;;;;;;;;;;;;;5507840;26;5393;-59
2024/04/19 15:32:32;;;;;;;;;;;;;;;;;;5504092;25;1320;-59
2024/04/19 15:34:57;;;;;;;;;;;;;;;;;;5500831;26;5112;-59
2024/04/19 15:37:23;;;;;;;;;;;;;;;;;;5498989;26;5230;-59
2024/04/19 15:39:48;;;;;;;;;;;;;;;;;;5509326;26;5161;-59
2024/04/19 15:42:14;;;;;;;;;;;;;;;;;;5500824;25;5172;-58
2024/04/19 15:44:42;;;;;;;;;;;;;;;;;;5504674;25;1253;-58
2024/04/19 15:47:08;;;;;;;;;;;;;;;;;;5508238;25;5249;-58
2024/04/19 15:49:34;;;;;;;;;;;;;;;;;;5512296;25;5194;-59
2024/04/19 15:51:59;;;;;;;;;;;;;;;;;;5501588;26;5190;-59
2024/04/19 15:54:25;;;;;;;;;;;;;;;;;;5500245;26;5126;-58
2024/04/19 15:56:50;;;;;;;;;;;;;;;;;;5502741;26;4568;-58
2024/04/19 15:59:16;;;;;;;;;;;;;;;;;;5495947;26;1570;-59
2024/04/19 16:01:41;;;;;;;;;;;;;;;;;;5501181;25;5717;-58
2024/04/19 16:04:07;;;;;;;;;;;;;;;;;;5507813;26;5187;-59
2024/04/19 16:06:33;;;;;;;;;;;;;;;;;;5507916;26;5126;-58
2024/04/19 16:08:58;;;;;;;;;;;;;;;;;;5500676;26;5109;-58
2024/04/19 16:11:24;;;;;;;;;;;;;;;;;;5504759;26;3205;-59
2024/04/19 16:13:49;;;;;;;;;;;;;;;;;;5497414;25;5223;-59
2024/04/19 16:16:16;;;;;;;;;;;;;;;;;;5471923;26;5224;-59
2024/04/19 16:18:43;;;;;;;;;;;;;;;;;;5513706;26;5142;-59
2024/04/19 16:21:08;;;;;;;;;;;;;;;;;;5507093;25;5132;-59
2024/04/19 16:23:34;;;;;;;;;;;;;;;;;;5510863;25;2387;-58
2024/04/19 16:25:59;;;;;;;;;;;;;;;;;;5497558;25;5103;-59
2024/04/19 16:28:25;;;;;;;;;;;;;;;;;;5504684;26;6278;-69
2024/04/19 16:30:51;;;;;;;;;;;;;;;;;;5463657;26;5214;-69
2024/04/19 16:33:16;;;;;;;;;;;;;;;;;;5477996;26;5115;-69
2024/04/19 16:35:42;;;;;;;;;;;;;;;;;;5506337;26;3387;-69
2024/04/19 16:38:07;;;;;;;;;;;;;;;;;;5489203;26;5000;-69
2024/04/19 16:40:32;;;;;;;;;;;;;;;;;;5507593;26;4705;-69
2024/04/19 16:42:58;;;;;;;;;;;;;;;;;;5510486;26;4542;-69
2024/04/19 16:45:23;;;;;;;;;;;;;;;;;;5511320;25;5008;-69
2024/04/19 16:47:52;;;;;;;;;;;;;;;;;;5506346;26;3383;-69
2024/04/19 16:50:18;;;;;;;;;;;;;;;;;;5499269;26;5182;-69
2024/04/19 16:52:43;;;;;;;;;;;;;;;;;;5507589;26;5138;-73
2024/04/19 16:55:11;;;;;;;;;;;;;;;;;;5502811;26;5115;-73
2024/04/19 16:57:36;;;;;;;;;;;;;;;;;;5490297;26;4733;-72